sensor_id;sensor_type;location;lat;lon;timestamp;pressure;altitude;pressure_sealevel;temperature;humidity
43741;BME280;29352;48.708;9.290;2022-08-19T00:00:35;97313.19;;;15.40;47.96
43741;BME280;29352;48.708;9.290;2022-08-19T00:03:02;97315.25;;;15.52;47.48
43741;BME280;29352;48.708;9.290;2022-08-19T00:05:28;97315.41;;;15.46;48.04
43741;BME280;29352;48.708;9.290;2022-08-19T00:07:54;97311.28;;;15.40;47.63
43741;BME280;29352;48.708;9.290;2022-08-19T00:10:20;97321.69;;;15.00;48.38
43741;BME280;29352;48.708;9.290;2022-08-19T00:12:46;97318.78;;;15.52;47.84
43741;BME280;29352;48.708;9.290;2022-08-19T00:15:15;97326.09;;;15.69;47.46
43741;BME280;29352;48.708;9.290;2022-08-19T00:17:43;97325.13;;;15.94;47.54
43741;BME280;29352;48.708;9.290;2022-08-19T00:20:12;97325.66;;;16.30;46.37
43741;BME280;29352;48.708;9.290;2022-08-19T00:22:44;97320.28;;;15.32;48.82
43741;BME280;29352;48.708;9.290;2022-08-19T00:25:11;97319.28;;;15.45;48.65
43741;BME280;29352;48.708;9.290;2022-08-19T00:27:38;97323.44;;;15.05;49.63
43741;BME280;29352;48.708;9.290;2022-08-19T00:30:06;97323.16;;;14.80;49.87
43741;BME280;29352;48.708;9.290;2022-08-19T00:32:33;97311.69;;;14.57;49.78
43741;BME280;29352;48.708;9.290;2022-08-19T00:34:59;97300.91;;;15.25;48.53
43741;BME280;29352;48.708;9.290;2022-08-19T00:37:26;97291.69;;;14.91;49.51
43741;BME280;29352;48.708;9.290;2022-08-19T00:39:53;97294.78;;;14.46;50.64
43741;BME280;29352;48.708;9.290;2022-08-19T00:42:20;97296.59;;;15.54;48.65
43741;BME280;29352;48.708;9.290;2022-08-19T00:44:47;97307.78;;;14.67;49.56
43741;BME280;29352;48.708;9.290;2022-08-19T00:47:14;97305.41;;;14.48;50.04
43741;BME280;29352;48.708;9.290;2022-08-19T00:49:45;97303.16;;;15.23;49.05
43741;BME280;29352;48.708;9.290;2022-08-19T00:52:25;97304.72;;;14.86;49.67
43741;BME280;29352;48.708;9.290;2022-08-19T00:54:56;97317.19;;;15.04;49.19
43741;BME280;29352;48.708;9.290;2022-08-19T00:57:28;97313.88;;;14.29;50.12
43741;BME280;29352;48.708;9.290;2022-08-19T00:59:58;97299.75;;;14.79;48.72
43741;BME280;29352;48.708;9.290;2022-08-19T01:02:27;97318.25;;;13.55;51.18
43741;BME280;29352;48.708;9.290;2022-08-19T01:04:54;97312.63;;;14.35;50.47
43741;BME280;29352;48.708;9.290;2022-08-19T01:07:20;97313.72;;;13.99;50.25
43741;BME280;29352;48.708;9.290;2022-08-19T01:09:46;97322.56;;;14.14;50.52
43741;BME280;29352;48.708;9.290;2022-08-19T01:12:12;97308.75;;;14.36;50.14
43741;BME280;29352;48.708;9.290;2022-08-19T01:14:39;97307.47;;;13.99;50.93
43741;BME280;29352;48.708;9.290;2022-08-19T01:17:08;97303.78;;;13.95;50.79
43741;BME280;29352;48.708;9.290;2022-08-19T01:19:41;97310.34;;;13.85;51.21
43741;BME280;29352;48.708;9.290;2022-08-19T01:22:34;97307.28;;;13.87;50.97
43741;BME280;29352;48.708;9.290;2022-08-19T01:25:09;97309.13;;;13.60;51.34
43741;BME280;29352;48.708;9.290;2022-08-19T01:27:42;97295.47;;;14.35;50.11
43741;BME280;29352;48.708;9.290;2022-08-19T01:30:15;97294.00;;;14.46;50.19
43741;BME280;29352;48.708;9.290;2022-08-19T01:32:47;97298.84;;;14.23;49.41
43741;BME280;29352;48.708;9.290;2022-08-19T01:35:14;97292.75;;;14.26;50.39
43741;BME280;29352;48.708;9.290;2022-08-19T01:37:47;97300.59;;;14.62;49.61
43741;BME280;29352;48.708;9.290;2022-08-19T01:40:19;97294.75;;;14.90;49.33
43741;BME280;29352;48.708;9.290;2022-08-19T01:42:48;97294.81;;;14.29;50.01
43741;BME280;29352;48.708;9.290;2022-08-19T01:45:15;97301.06;;;14.38;51.04
43741;BME280;29352;48.708;9.290;2022-08-19T01:47:41;97290.88;;;14.91;50.00
43741;BME280;29352;48.708;9.290;2022-08-19T01:50:10;97287.09;;;14.74;50.03
43741;BME280;29352;48.708;9.290;2022-08-19T01:52:38;97294.16;;;14.49;50.91
43741;BME280;29352;48.708;9.290;2022-08-19T01:55:08;97291.06;;;14.77;50.03
43741;BME280;29352;48.708;9.290;2022-08-19T01:57:39;97304.84;;;13.68;52.60
43741;BME280;29352;48.708;9.290;2022-08-19T02:00:11;97301.88;;;14.21;51.17
43741;BME280;29352;48.708;9.290;2022-08-19T02:02:39;97300.06;;;13.82;51.29
43741;BME280;29352;48.708;9.290;2022-08-19T02:05:05;97290.66;;;14.40;50.10
43741;BME280;29352;48.708;9.290;2022-08-19T02:07:33;97294.81;;;14.03;51.13
43741;BME280;29352;48.708;9.290;2022-08-19T02:10:02;97301.72;;;14.44;51.10
43741;BME280;29352;48.708;9.290;2022-08-19T02:12:29;97289.63;;;14.71;50.57
43741;BME280;29352;48.708;9.290;2022-08-19T02:14:54;97294.34;;;14.44;50.78
43741;BME280;29352;48.708;9.290;2022-08-19T02:17:20;97298.00;;;14.48;50.32
43741;BME280;29352;48.708;9.290;2022-08-19T02:19:45;97289.03;;;14.48;50.86
43741;BME280;29352;48.708;9.290;2022-08-19T02:22:11;97303.00;;;14.29;50.89
43741;BME280;29352;48.708;9.290;2022-08-19T02:24:37;97306.84;;;14.28;50.67
43741;BME280;29352;48.708;9.290;2022-08-19T02:27:04;97314.22;;;14.53;50.31
43741;BME280;29352;48.708;9.290;2022-08-19T02:29:30;97310.34;;;14.72;49.26
43741;BME280;29352;48.708;9.290;2022-08-19T02:31:56;97300.69;;;14.83;49.61
43741;BME280;29352;48.708;9.290;2022-08-19T02:34:23;97294.94;;;14.76;50.05
43741;BME280;29352;48.708;9.290;2022-08-19T02:36:50;97296.91;;;14.06;51.58
43741;BME280;29352;48.708;9.290;2022-08-19T02:39:16;97294.63;;;13.82;51.94
43741;BME280;29352;48.708;9.290;2022-08-19T02:41:42;97280.91;;;12.76;52.69
43741;BME280;29352;48.708;9.290;2022-08-19T02:44:07;97280.88;;;12.45;53.34
43741;BME280;29352;48.708;9.290;2022-08-19T02:46:34;97286.97;;;12.73;52.74
43741;BME280;29352;48.708;9.290;2022-08-19T02:49:03;97290.50;;;12.74;53.16
43741;BME280;29352;48.708;9.290;2022-08-19T02:51:34;97284.63;;;12.35;53.96
43741;BME280;29352;48.708;9.290;2022-08-19T02:54:05;97282.66;;;12.72;52.88
43741;BME280;29352;48.708;9.290;2022-08-19T02:56:39;97280.25;;;13.42;51.68
43741;BME280;29352;48.708;9.290;2022-08-19T02:59:06;97278.06;;;12.14;53.26
43741;BME280;29352;48.708;9.290;2022-08-19T03:01:38;97272.94;;;12.35;53.18
43741;BME280;29352;48.708;9.290;2022-08-19T03:04:06;97276.56;;;12.44;53.09
43741;BME280;29352;48.708;9.290;2022-08-19T03:06:37;97284.31;;;12.82;52.07
43741;BME280;29352;48.708;9.290;2022-08-19T03:09:04;97293.03;;;12.25;52.95
43741;BME280;29352;48.708;9.290;2022-08-19T03:11:31;97294.63;;;12.26;53.08
43741;BME280;29352;48.708;9.290;2022-08-19T03:13:58;97297.75;;;12.87;52.04
43741;BME280;29352;48.708;9.290;2022-08-19T03:16:27;97300.56;;;12.96;52.05
43741;BME280;29352;48.708;9.290;2022-08-19T03:18:56;97302.97;;;12.30;53.07
43741;BME280;29352;48.708;9.290;2022-08-19T03:21:26;97310.47;;;12.10;53.46
43741;BME280;29352;48.708;9.290;2022-08-19T03:23:55;97312.34;;;12.24;53.15
43741;BME280;29352;48.708;9.290;2022-08-19T03:26:22;97311.22;;;12.02;53.62
43741;BME280;29352;48.708;9.290;2022-08-19T03:28:47;97307.66;;;12.83;51.79
43741;BME280;29352;48.708;9.290;2022-08-19T03:31:18;97306.31;;;12.49;52.43
43741;BME280;29352;48.708;9.290;2022-08-19T03:33:51;97299.44;;;12.29;52.82
43741;BME280;29352;48.708;9.290;2022-08-19T03:36:23;97299.53;;;12.02;53.17
43741;BME280;29352;48.708;9.290;2022-08-19T03:38:54;97306.03;;;12.14;53.43
43741;BME280;29352;48.708;9.290;2022-08-19T03:41:24;97305.28;;;12.00;52.96
43741;BME280;29352;48.708;9.290;2022-08-19T03:43:55;97300.09;;;12.49;52.33
43741;BME280;29352;48.708;9.290;2022-08-19T03:46:26;97298.94;;;12.05;52.99
43741;BME280;29352;48.708;9.290;2022-08-19T03:48:56;97302.22;;;12.38;52.36
43741;BME280;29352;48.708;9.290;2022-08-19T03:51:26;97306.78;;;12.42;52.21
43741;BME280;29352;48.708;9.290;2022-08-19T03:53:58;97305.06;;;13.00;51.45
43741;BME280;29352;48.708;9.290;2022-08-19T03:56:26;97312.06;;;12.48;52.75
43741;BME280;29352;48.708;9.290;2022-08-19T03:58:53;97307.91;;;12.28;52.62
43741;BME280;29352;48.708;9.290;2022-08-19T04:01:22;97304.63;;;12.53;51.97
43741;BME280;29352;48.708;9.290;2022-08-19T04:03:52;97311.34;;;12.19;52.76
43741;BME280;29352;48.708;9.290;2022-08-19T04:06:28;97319.13;;;12.35;52.37
43741;BME280;29352;48.708;9.290;2022-08-19T04:08:58;97315.41;;;12.44;52.51
43741;BME280;29352;48.708;9.290;2022-08-19T04:11:30;97315.47;;;11.81;53.50
43741;BME280;29352;48.708;9.290;2022-08-19T04:13:56;97311.25;;;12.70;51.89
43741;BME280;29352;48.708;9.290;2022-08-19T04:16:24;97302.75;;;12.04;53.05
43741;BME280;29352;48.708;9.290;2022-08-19T04:18:53;97303.22;;;12.19;52.71
43741;BME280;29352;48.708;9.290;2022-08-19T04:21:23;97304.53;;;12.44;52.10
43741;BME280;29352;48.708;9.290;2022-08-19T04:23:50;97303.06;;;12.25;52.77
43741;BME280;29352;48.708;9.290;2022-08-19T04:26:20;97300.81;;;11.40;53.92
43741;BME280;29352;48.708;9.290;2022-08-19T04:28:48;97300.41;;;11.47;53.79
43741;BME280;29352;48.708;9.290;2022-08-19T04:31:23;97304.09;;;11.79;53.28
43741;BME280;29352;48.708;9.290;2022-08-19T04:33:52;97295.00;;;11.83;53.27
43741;BME280;29352;48.708;9.290;2022-08-19T04:36:26;97298.28;;;11.71;53.38
43741;BME280;29352;48.708;9.290;2022-08-19T04:38:56;97294.38;;;11.50;53.82
43741;BME280;29352;48.708;9.290;2022-08-19T04:41:26;97298.22;;;10.89;54.86
43741;BME280;29352;48.708;9.290;2022-08-19T04:44:11;97295.03;;;11.69;53.80
43741;BME280;29352;48.708;9.290;2022-08-19T04:46:38;97294.13;;;12.02;52.87
43741;BME280;29352;48.708;9.290;2022-08-19T04:49:05;97295.78;;;11.47;53.46
43741;BME280;29352;48.708;9.290;2022-08-19T04:51:33;97295.88;;;11.29;54.13
43741;BME280;29352;48.708;9.290;2022-08-19T04:54:01;97297.47;;;11.16;53.94
43741;BME280;29352;48.708;9.290;2022-08-19T04:56:28;97310.53;;;11.69;53.04
43741;BME280;29352;48.708;9.290;2022-08-19T04:58:55;97303.63;;;12.13;52.45
43741;BME280;29352;48.708;9.290;2022-08-19T05:01:24;97295.69;;;12.61;51.63
43741;BME280;29352;48.708;9.290;2022-08-19T05:03:53;97311.97;;;12.53;51.80
43741;BME280;29352;48.708;9.290;2022-08-19T05:06:21;97315.81;;;12.83;51.52
43741;BME280;29352;48.708;9.290;2022-08-19T05:08:48;97328.94;;;12.58;51.48
43741;BME280;29352;48.708;9.290;2022-08-19T05:11:22;97334.88;;;12.24;51.96
43741;BME280;29352;48.708;9.290;2022-08-19T05:13:51;97338.56;;;12.42;51.98
43741;BME280;29352;48.708;9.290;2022-08-19T05:16:20;97352.59;;;12.80;51.47
43741;BME280;29352;48.708;9.290;2022-08-19T05:18:47;97357.72;;;11.73;52.74
43741;BME280;29352;48.708;9.290;2022-08-19T05:21:32;97366.09;;;12.27;51.71
43741;BME280;29352;48.708;9.290;2022-08-19T05:24:18;97379.13;;;12.97;51.01
43741;BME280;29352;48.708;9.290;2022-08-19T05:26:50;97381.06;;;12.97;50.70
43741;BME280;29352;48.708;9.290;2022-08-19T05:29:20;97393.72;;;13.55;50.33
43741;BME280;29352;48.708;9.290;2022-08-19T05:31:47;97398.19;;;13.51;50.19
43741;BME280;29352;48.708;9.290;2022-08-19T05:34:18;97405.81;;;13.80;49.32
43741;BME280;29352;48.708;9.290;2022-08-19T05:36:48;97406.69;;;13.27;49.93
43741;BME280;29352;48.708;9.290;2022-08-19T05:39:18;97410.88;;;13.02;50.50
43741;BME280;29352;48.708;9.290;2022-08-19T05:41:52;97409.91;;;13.06;51.21
43741;BME280;29352;48.708;9.290;2022-08-19T05:44:26;97405.03;;;12.95;51.03
43741;BME280;29352;48.708;9.290;2022-08-19T05:46:57;97399.84;;;13.07;51.27
43741;BME280;29352;48.708;9.290;2022-08-19T05:49:25;97395.03;;;12.45;51.92
43741;BME280;29352;48.708;9.290;2022-08-19T05:51:53;97398.56;;;12.90;51.46
43741;BME280;29352;48.708;9.290;2022-08-19T05:54:21;97402.38;;;12.81;51.59
43741;BME280;29352;48.708;9.290;2022-08-19T05:56:49;97399.84;;;13.07;51.22
43741;BME280;29352;48.708;9.290;2022-08-19T05:59:16;97397.84;;;12.54;51.54
43741;BME280;29352;48.708;9.290;2022-08-19T06:01:47;97401.81;;;12.70;51.59
43741;BME280;29352;48.708;9.290;2022-08-19T06:04:16;97406.94;;;12.35;52.37
43741;BME280;29352;48.708;9.290;2022-08-19T06:06:45;97410.69;;;12.12;52.90
43741;BME280;29352;48.708;9.290;2022-08-19T06:09:12;97410.00;;;11.92;53.82
43741;BME280;29352;48.708;9.290;2022-08-19T06:11:45;97406.22;;;12.43;53.26
43741;BME280;29352;48.708;9.290;2022-08-19T06:14:15;97402.31;;;12.36;53.04
43741;BME280;29352;48.708;9.290;2022-08-19T06:16:44;97398.53;;;12.82;52.62
43741;BME280;29352;48.708;9.290;2022-08-19T06:19:14;97409.91;;;12.11;54.03
43741;BME280;29352;48.708;9.290;2022-08-19T06:21:45;97401.13;;;12.64;53.06
43741;BME280;29352;48.708;9.290;2022-08-19T06:24:16;97407.53;;;12.46;53.52
43741;BME280;29352;48.708;9.290;2022-08-19T06:26:47;97413.25;;;13.03;52.04
43741;BME280;29352;48.708;9.290;2022-08-19T06:29:15;97411.81;;;12.83;51.95
43741;BME280;29352;48.708;9.290;2022-08-19T06:31:47;97413.78;;;12.47;52.73
43741;BME280;29352;48.708;9.290;2022-08-19T06:34:15;97414.31;;;11.66;54.26
43741;BME280;29352;48.708;9.290;2022-08-19T06:36:45;97414.50;;;12.11;53.08
43741;BME280;29352;48.708;9.290;2022-08-19T06:39:17;97406.81;;;11.90;53.68
43741;BME280;29352;48.708;9.290;2022-08-19T06:41:48;97405.56;;;12.10;53.35
43741;BME280;29352;48.708;9.290;2022-08-19T06:44:15;97410.13;;;12.01;53.54
43741;BME280;29352;48.708;9.290;2022-08-19T06:46:42;97410.75;;;12.34;53.38
43741;BME280;29352;48.708;9.290;2022-08-19T06:49:08;97409.72;;;12.58;53.12
43741;BME280;29352;48.708;9.290;2022-08-19T06:51:42;97414.50;;;12.97;53.01
43741;BME280;29352;48.708;9.290;2022-08-19T06:54:10;97412.41;;;12.80;52.96
43741;BME280;29352;48.708;9.290;2022-08-19T06:56:36;97408.31;;;13.05;52.90
43741;BME280;29352;48.708;9.290;2022-08-19T06:59:09;97415.63;;;12.96;53.22
43741;BME280;29352;48.708;9.290;2022-08-19T07:01:41;97423.75;;;12.74;53.10
43741;BME280;29352;48.708;9.290;2022-08-19T07:04:11;97419.31;;;13.23;53.08
43741;BME280;29352;48.708;9.290;2022-08-19T07:06:37;97427.47;;;13.00;53.00
43741;BME280;29352;48.708;9.290;2022-08-19T07:09:07;97424.13;;;12.81;53.93
43741;BME280;29352;48.708;9.290;2022-08-19T07:11:36;97425.34;;;12.75;54.97
43741;BME280;29352;48.708;9.290;2022-08-19T07:14:02;97426.63;;;12.55;55.22
43741;BME280;29352;48.708;9.290;2022-08-19T07:16:29;97430.22;;;12.64;55.38
43741;BME280;29352;48.708;9.290;2022-08-19T07:18:55;97428.41;;;12.09;56.45
43741;BME280;29352;48.708;9.290;2022-08-19T07:21:27;97425.28;;;12.16;56.64
43741;BME280;29352;48.708;9.290;2022-08-19T07:23:53;97418.44;;;12.18;56.01
43741;BME280;29352;48.708;9.290;2022-08-19T07:26:30;97417.41;;;13.32;54.22
43741;BME280;29352;48.708;9.290;2022-08-19T07:28:58;97427.88;;;12.94;54.81
43741;BME280;29352;48.708;9.290;2022-08-19T07:31:27;97425.34;;;12.75;54.97
43741;BME280;29352;48.708;9.290;2022-08-19T07:33:55;97432.59;;;12.79;54.86
43741;BME280;29352;48.708;9.290;2022-08-19T07:36:25;97433.94;;;13.35;54.53
43741;BME280;29352;48.708;9.290;2022-08-19T07:38:59;97431.06;;;12.51;55.95
43741;BME280;29352;48.708;9.290;2022-08-19T07:41:28;97431.94;;;12.96;55.33
43741;BME280;29352;48.708;9.290;2022-08-19T07:43:56;97430.28;;;13.40;53.94
43741;BME280;29352;48.708;9.290;2022-08-19T07:46:22;97438.56;;;12.90;55.11
43741;BME280;29352;48.708;9.290;2022-08-19T07:48:49;97440.06;;;13.64;53.71
43741;BME280;29352;48.708;9.290;2022-08-19T07:51:21;97433.94;;;13.67;54.02
43741;BME280;29352;48.708;9.290;2022-08-19T07:53:47;97438.13;;;12.52;56.03
43741;BME280;29352;48.708;9.290;2022-08-19T07:56:15;97436.66;;;12.68;54.81
43741;BME280;29352;48.708;9.290;2022-08-19T07:58:44;97435.81;;;13.26;54.60
43741;BME280;29352;48.708;9.290;2022-08-19T08:01:15;97444.75;;;12.46;55.91
43741;BME280;29352;48.708;9.290;2022-08-19T08:03:45;97442.91;;;11.91;56.81
43741;BME280;29352;48.708;9.290;2022-08-19T08:06:30;97449.56;;;12.62;56.07
43741;BME280;29352;48.708;9.290;2022-08-19T08:09:23;97459.63;;;12.62;56.04
43741;BME280;29352;48.708;9.290;2022-08-19T08:11:59;97456.34;;;11.82;56.15
43741;BME280;29352;48.708;9.290;2022-08-19T08:14:37;97449.19;;;12.55;55.20
43741;BME280;29352;48.708;9.290;2022-08-19T08:17:08;97455.44;;;12.42;55.73
43741;BME280;29352;48.708;9.290;2022-08-19T08:19:34;97451.56;;;12.71;55.43
43741;BME280;29352;48.708;9.290;2022-08-19T08:22:01;97447.53;;;12.18;57.04
43741;BME280;29352;48.708;9.290;2022-08-19T08:24:30;97446.09;;;13.07;54.82
43741;BME280;29352;48.708;9.290;2022-08-19T08:26:58;97449.22;;;12.41;56.18
43741;BME280;29352;48.708;9.290;2022-08-19T08:29:30;97449.59;;;12.85;55.07
43741;BME280;29352;48.708;9.290;2022-08-19T08:31:56;97451.03;;;12.46;56.29
43741;BME280;29352;48.708;9.290;2022-08-19T08:34:23;97455.22;;;12.52;56.13
43741;BME280;29352;48.708;9.290;2022-08-19T08:36:49;97452.22;;;12.54;55.95
43741;BME280;29352;48.708;9.290;2022-08-19T08:39:18;97451.25;;;12.22;56.62
43741;BME280;29352;48.708;9.290;2022-08-19T08:47:05;97441.00;;;12.05;57.09
43741;BME280;29352;48.708;9.290;2022-08-19T08:49:46;97437.66;;;12.72;56.51
43741;BME280;29352;48.708;9.290;2022-08-19T08:52:25;97449.03;;;12.10;57.25
43741;BME280;29352;48.708;9.290;2022-08-19T08:54:57;97446.75;;;12.67;56.24
43741;BME280;29352;48.708;9.290;2022-08-19T09:00:23;97465.09;;;12.34;57.29
43741;BME280;29352;48.708;9.290;2022-08-19T09:02:56;97464.16;;;11.42;58.65
43741;BME280;29352;48.708;9.290;2022-08-19T09:05:41;97452.16;;;12.04;56.96
43741;BME280;29352;48.708;9.290;2022-08-19T09:08:24;97454.69;;;13.00;54.50
43741;BME280;29352;48.708;9.290;2022-08-19T09:17:24;97461.94;;;13.05;56.21
43741;BME280;29352;48.708;9.290;2022-08-19T09:20:15;97465.75;;;13.04;56.28
43741;BME280;29352;48.708;9.290;2022-08-19T09:22:44;97465.34;;;13.64;54.68
43741;BME280;29352;48.708;9.290;2022-08-19T09:25:14;97465.78;;;12.90;56.14
43741;BME280;29352;48.708;9.290;2022-08-19T09:27:42;97467.31;;;13.72;54.67
43741;BME280;29352;48.708;9.290;2022-08-19T09:30:11;97470.22;;;13.00;55.80
43741;BME280;29352;48.708;9.290;2022-08-19T09:32:40;97472.38;;;13.34;55.35
43741;BME280;29352;48.708;9.290;2022-08-19T09:35:07;97465.97;;;13.61;54.69
43741;BME280;29352;48.708;9.290;2022-08-19T09:37:33;97471.63;;;14.04;53.63
43741;BME280;29352;48.708;9.290;2022-08-19T09:39:59;97468.41;;;14.02;54.00
43741;BME280;29352;48.708;9.290;2022-08-19T09:42:24;97476.34;;;14.39;53.58
43741;BME280;29352;48.708;9.290;2022-08-19T09:44:50;97473.28;;;13.83;54.11
43741;BME280;29352;48.708;9.290;2022-08-19T09:47:15;97475.81;;;14.11;55.10
43741;BME280;29352;48.708;9.290;2022-08-19T09:49:41;97486.56;;;14.82;52.57
43741;BME280;29352;48.708;9.290;2022-08-19T09:52:10;97482.50;;;14.70;52.50
43741;BME280;29352;48.708;9.290;2022-08-19T09:54:38;97484.56;;;14.47;52.33
43741;BME280;29352;48.708;9.290;2022-08-19T09:57:04;97482.53;;;14.96;52.58
43741;BME280;29352;48.708;9.290;2022-08-19T09:59:30;97474.16;;;14.67;53.01
43741;BME280;29352;48.708;9.290;2022-08-19T10:01:56;97479.16;;;14.91;52.34
43741;BME280;29352;48.708;9.290;2022-08-19T10:04:22;97482.69;;;14.83;52.94
43741;BME280;29352;48.708;9.290;2022-08-19T10:06:50;97482.22;;;15.15;52.79
43741;BME280;29352;48.708;9.290;2022-08-19T10:09:17;97479.38;;;15.76;50.82
43741;BME280;29352;48.708;9.290;2022-08-19T10:11:44;97482.38;;;15.19;52.37
43741;BME280;29352;48.708;9.290;2022-08-19T10:14:15;97478.16;;;15.39;51.57
43741;BME280;29352;48.708;9.290;2022-08-19T10:16:42;97471.91;;;16.03;50.83
43741;BME280;29352;48.708;9.290;2022-08-19T10:19:08;97480.25;;;15.97;51.28
43741;BME280;29352;48.708;9.290;2022-08-19T10:21:35;97484.28;;;15.36;52.04
43741;BME280;29352;48.708;9.290;2022-08-19T10:24:04;97484.50;;;15.78;51.48
43741;BME280;29352;48.708;9.290;2022-08-19T10:26:34;97486.53;;;14.55;54.09
43741;BME280;29352;48.708;9.290;2022-08-19T10:29:03;97481.28;;;15.03;54.77
43741;BME280;29352;48.708;9.290;2022-08-19T10:31:31;97482.66;;;15.35;52.53
43741;BME280;29352;48.708;9.290;2022-08-19T10:34:00;97475.78;;;15.37;52.82
43741;BME280;29352;48.708;9.290;2022-08-19T10:36:31;97469.66;;;15.96;51.31
43741;BME280;29352;48.708;9.290;2022-08-19T10:39:08;97476.59;;;14.94;53.22
43741;BME280;29352;48.708;9.290;2022-08-19T10:41:37;97477.84;;;15.58;52.36
43741;BME280;29352;48.708;9.290;2022-08-19T10:44:07;97471.94;;;15.21;53.28
43741;BME280;29352;48.708;9.290;2022-08-19T10:46:38;97472.34;;;15.49;53.40
43741;BME280;29352;48.708;9.290;2022-08-19T10:49:09;97473.41;;;15.10;54.07
43741;BME280;29352;48.708;9.290;2022-08-19T10:51:38;97476.59;;;14.86;54.54
43741;BME280;29352;48.708;9.290;2022-08-19T10:54:24;97480.63;;;14.14;54.36
43741;BME280;29352;48.708;9.290;2022-08-19T10:57:09;97471.63;;;15.05;53.58
43741;BME280;29352;48.708;9.290;2022-08-19T10:59:36;97474.56;;;14.17;55.21
43741;BME280;29352;48.708;9.290;2022-08-19T11:02:05;97469.06;;;13.77;55.69
43741;BME280;29352;48.708;9.290;2022-08-19T11:04:36;97469.78;;;14.31;55.50
43741;BME280;29352;48.708;9.290;2022-08-19T11:07:03;97464.41;;;14.66;54.70
43741;BME280;29352;48.708;9.290;2022-08-19T11:09:30;97473.84;;;14.77;54.33
43741;BME280;29352;48.708;9.290;2022-08-19T11:11:56;97469.47;;;13.93;54.59
43741;BME280;29352;48.708;9.290;2022-08-19T11:14:23;97476.41;;;15.25;52.18
43741;BME280;29352;48.708;9.290;2022-08-19T11:16:51;97478.50;;;15.37;51.59
43741;BME280;29352;48.708;9.290;2022-08-19T11:19:18;97488.78;;;14.79;53.32
43741;BME280;29352;48.708;9.290;2022-08-19T11:21:47;97477.97;;;14.40;54.10
43741;BME280;29352;48.708;9.290;2022-08-19T11:24:19;97479.53;;;13.07;56.50
43741;BME280;29352;48.708;9.290;2022-08-19T11:26:49;97475.72;;;13.31;57.71
43741;BME280;29352;48.708;9.290;2022-08-19T11:29:20;97480.28;;;12.49;58.46
43741;BME280;29352;48.708;9.290;2022-08-19T11:31:48;97482.38;;;11.69;60.13
43741;BME280;29352;48.708;9.290;2022-08-19T11:34:20;97484.75;;;12.17;58.87
43741;BME280;29352;48.708;9.290;2022-08-19T11:36:50;97479.63;;;12.30;58.97
43741;BME280;29352;48.708;9.290;2022-08-19T11:39:18;97483.53;;;12.87;58.57
43741;BME280;29352;48.708;9.290;2022-08-19T11:41:45;97485.84;;;11.89;60.25
43741;BME280;29352;48.708;9.290;2022-08-19T11:44:11;97482.66;;;11.87;59.66
43741;BME280;29352;48.708;9.290;2022-08-19T11:46:39;97480.44;;;11.89;60.01
43741;BME280;29352;48.708;9.290;2022-08-19T11:49:06;97474.19;;;12.80;58.99
43741;BME280;29352;48.708;9.290;2022-08-19T11:51:35;97476.06;;;13.38;57.33
43741;BME280;29352;48.708;9.290;2022-08-19T11:54:03;97473.56;;;13.19;56.70
43741;BME280;29352;48.708;9.290;2022-08-19T11:56:30;97471.84;;;12.37;58.73
43741;BME280;29352;48.708;9.290;2022-08-19T11:58:56;97470.09;;;13.90;56.80
43741;BME280;29352;48.708;9.290;2022-08-19T12:01:24;97465.78;;;13.97;55.75
43741;BME280;29352;48.708;9.290;2022-08-19T12:03:53;97465.28;;;14.26;54.76
43741;BME280;29352;48.708;9.290;2022-08-19T12:06:25;97477.03;;;13.42;56.88
43741;BME280;29352;48.708;9.290;2022-08-19T12:08:59;97474.06;;;13.75;56.52
43741;BME280;29352;48.708;9.290;2022-08-19T12:11:27;97467.97;;;14.18;55.33
43741;BME280;29352;48.708;9.290;2022-08-19T12:13:53;97470.22;;;14.16;55.98
43741;BME280;29352;48.708;9.290;2022-08-19T12:16:28;97478.34;;;14.55;55.20
43741;BME280;29352;48.708;9.290;2022-08-19T12:18:57;97475.63;;;14.55;55.02
43741;BME280;29352;48.708;9.290;2022-08-19T12:21:26;97477.44;;;14.29;55.97
43741;BME280;29352;48.708;9.290;2022-08-19T12:23:55;97474.75;;;14.38;55.52
43741;BME280;29352;48.708;9.290;2022-08-19T12:26:23;97474.31;;;13.65;56.56
43741;BME280;29352;48.708;9.290;2022-08-19T12:28:51;97471.88;;;13.94;55.70
43741;BME280;29352;48.708;9.290;2022-08-19T12:31:18;97478.06;;;14.08;55.14
43741;BME280;29352;48.708;9.290;2022-08-19T12:33:45;97467.91;;;13.60;55.61
43741;BME280;29352;48.708;9.290;2022-08-19T12:36:13;97474.03;;;11.66;60.08
43741;BME280;29352;48.708;9.290;2022-08-19T12:38:42;97478.00;;;12.29;59.14
43741;BME280;29352;48.708;9.290;2022-08-19T12:41:11;97483.50;;;11.68;60.13
43741;BME280;29352;48.708;9.290;2022-08-19T12:43:38;97485.13;;;11.04;61.41
43741;BME280;29352;48.708;9.290;2022-08-19T12:46:05;97480.44;;;12.16;59.21
43741;BME280;29352;48.708;9.290;2022-08-19T12:48:32;97485.16;;;12.11;60.00
43741;BME280;29352;48.708;9.290;2022-08-19T12:50:59;97478.19;;;12.96;57.78
43741;BME280;29352;48.708;9.290;2022-08-19T12:53:26;97483.31;;;11.79;60.32
43741;BME280;29352;48.708;9.290;2022-08-19T12:56:00;97478.03;;;11.55;61.30
43741;BME280;29352;48.708;9.290;2022-08-19T12:58:26;97482.22;;;12.21;59.79
43741;BME280;29352;48.708;9.290;2022-08-19T13:00:53;97479.69;;;12.25;59.78
43741;BME280;29352;48.708;9.290;2022-08-19T13:03:18;97479.16;;;13.00;57.87
43741;BME280;29352;48.708;9.290;2022-08-19T13:05:44;97481.22;;;12.44;58.88
43741;BME280;29352;48.708;9.290;2022-08-19T13:08:09;97491.47;;;12.61;58.75
43741;BME280;29352;48.708;9.290;2022-08-19T13:10:36;97489.69;;;12.43;58.10
43741;BME280;29352;48.708;9.290;2022-08-19T13:13:06;97489.75;;;13.02;57.76
43741;BME280;29352;48.708;9.290;2022-08-19T13:15:38;97488.19;;;14.25;55.09
43741;BME280;29352;48.708;9.290;2022-08-19T13:18:07;97495.88;;;13.52;56.40
43741;BME280;29352;48.708;9.290;2022-08-19T13:20:36;97500.53;;;13.83;56.02
43741;BME280;29352;48.708;9.290;2022-08-19T13:23:03;97501.41;;;13.70;56.74
43741;BME280;29352;48.708;9.290;2022-08-19T13:25:30;97498.03;;;12.47;58.44